sensor_id;sensor_type;location;lat;lon;timestamp;pressure;altitude;pressure_sealevel;temperature;humidity
6680;BME280;3376;42.664;23.346;2023-05-19T00:02:16;94750.34;;;12.17;100.00
6680;BME280;3376;42.664;23.346;2023-05-19T00:04:45;94733.16;;;12.01;100.00
6680;BME280;3376;42.664;23.346;2023-05-19T00:07:17;94750.69;;;12.14;100.00
6680;BME280;3376;42.664;23.346;2023-05-19T00:09:46;94758.59;;;12.20;100.00
6680;BME280;3376;42.664;23.346;2023-05-19T00:12:14;94756.34;;;12.17;100.00
6680;BME280;3376;42.664;23.346;2023-05-19T00:14:41;94750.34;;;12.17;100.00
6680;BME280;3376;42.664;23.346;2023-05-19T00:17:09;94751.50;;;12.14;100.00
6680;BME280;3376;42.664;23.346;2023-05-19T00:19:35;94751.13;;;12.17;100.00
6680;BME280;3376;42.664;23.346;2023-05-19T00:22:03;94741.19;;;12.21;100.00
6680;BME280;3376;42.664;23.346;2023-05-19T00:24:30;94739.97;;;12.17;100.00
6680;BME280;3376;42.664;23.346;2023-05-19T00:26:58;94744.16;;;12.18;100.00
6680;BME280;3376;42.664;23.346;2023-05-19T00:29:25;94740.84;;;12.09;100.00
6680;BME280;3376;42.664;23.346;2023-05-19T00:31:52;94742.81;;;12.07;100.00
6680;BME280;3376;42.664;23.346;2023-05-19T00:34:18;94735.94;;;12.14;100.00
6680;BME280;3376;42.664;23.346;2023-05-19T00:36:45;94741.13;;;12.14;100.00
6680;BME280;3376;42.664;23.346;2023-05-19T00:39:12;94737.88;;;12.12;100.00
6680;BME280;3376;42.664;23.346;2023-05-19T00:41:38;94740.75;;;12.17;100.00
6680;BME280;3376;42.664;23.346;2023-05-19T00:44:07;94741.94;;;12.15;100.00
6680;BME280;3376;42.664;23.346;2023-05-19T00:46:33;94733.16;;;12.16;100.00
6680;BME280;3376;42.664;23.346;2023-05-19T00:49:00;94733.59;;;12.19;100.00
6680;BME280;3376;42.664;23.346;2023-05-19T00:51:27;94734.31;;;12.13;100.00
6680;BME280;3376;42.664;23.346;2023-05-19T00:53:55;94732.63;;;12.20;100.00
6680;BME280;3376;42.664;23.346;2023-05-19T00:56:23;94731.00;;;12.19;100.00
6680;BME280;3376;42.664;23.346;2023-05-19T00:58:50;94732.97;;;12.17;100.00
6680;BME280;3376;42.664;23.346;2023-05-19T01:01:19;94739.97;;;12.17;100.00
6680;BME280;3376;42.664;23.346;2023-05-19T01:03:46;94711.38;;;12.02;100.00
6680;BME280;3376;42.664;23.346;2023-05-19T01:06:13;94736.47;;;12.10;100.00
6680;BME280;3376;42.664;23.346;2023-05-19T01:08:43;94736.28;;;12.11;100.00
6680;BME280;3376;42.664;23.346;2023-05-19T01:11:10;94706.94;;;11.96;100.00
6680;BME280;3376;42.664;23.346;2023-05-19T01:13:37;94689.56;;;11.82;100.00
6680;BME280;3376;42.664;23.346;2023-05-19T01:16:07;94736.22;;;12.05;100.00
6680;BME280;3376;42.664;23.346;2023-05-19T01:18:54;94745.16;;;12.02;100.00
6680;BME280;3376;42.664;23.346;2023-05-19T01:24:23;94740.31;;;11.99;100.00
6680;BME280;3376;42.664;23.346;2023-05-19T01:30:29;94734.66;;;11.81;100.00
6680;BME280;3376;42.664;23.346;2023-05-19T01:32:59;94731.44;;;11.79;100.00
6680;BME280;3376;42.664;23.346;2023-05-19T01:35:27;94727.59;;;11.75;100.00
6680;BME280;3376;42.664;23.346;2023-05-19T01:37:55;94725.63;;;11.77;100.00
6680;BME280;3376;42.664;23.346;2023-05-19T01:40:24;94723.91;;;11.69;100.00
6680;BME280;3376;42.664;23.346;2023-05-19T01:42:53;94737.31;;;11.73;100.00
6680;BME280;3376;42.664;23.346;2023-05-19T01:45:21;94735.00;;;11.78;100.00
6680;BME280;3376;42.664;23.346;2023-05-19T01:47:51;94735.91;;;11.70;100.00
6680;BME280;3376;42.664;23.346;2023-05-19T01:50:18;94734.81;;;11.65;100.00
6680;BME280;3376;42.664;23.346;2023-05-19T01:52:46;94729.63;;;11.65;100.00
6680;BME280;3376;42.664;23.346;2023-05-19T01:55:12;94739.69;;;11.60;100.00
6680;BME280;3376;42.664;23.346;2023-05-19T01:57:48;94733.31;;;11.48;100.00
6680;BME280;3376;42.664;23.346;2023-05-19T02:00:23;94736.88;;;11.47;100.00
6680;BME280;3376;42.664;23.346;2023-05-19T02:03:04;94738.16;;;11.51;100.00
6680;BME280;3376;42.664;23.346;2023-05-19T02:05:39;94741.47;;;11.59;100.00
6680;BME280;3376;42.664;23.346;2023-05-19T02:08:13;94743.56;;;11.64;100.00
6680;BME280;3376;42.664;23.346;2023-05-19T02:10:48;94747.13;;;11.63;100.00
6680;BME280;3376;42.664;23.346;2023-05-19T02:13:17;94736.41;;;11.66;100.00
6680;BME280;3376;42.664;23.346;2023-05-19T02:15:47;94746.28;;;11.70;100.00
6680;BME280;3376;42.664;23.346;2023-05-19T02:18:17;94749.03;;;11.69;100.00
6680;BME280;3376;42.664;23.346;2023-05-19T02:20:44;94750.84;;;11.68;100.00
6680;BME280;3376;42.664;23.346;2023-05-19T02:23:11;94748.63;;;11.57;100.00
6680;BME280;3376;42.664;23.346;2023-05-19T02:25:38;94747.66;;;11.58;100.00
6680;BME280;3376;42.664;23.346;2023-05-19T02:28:04;94744.22;;;11.66;100.00
6680;BME280;3376;42.664;23.346;2023-05-19T02:30:31;94748.44;;;11.59;100.00
6680;BME280;3376;42.664;23.346;2023-05-19T02:32:58;94752.22;;;11.56;100.00
6680;BME280;3376;42.664;23.346;2023-05-19T02:35:26;94746.47;;;11.46;100.00
6680;BME280;3376;42.664;23.346;2023-05-19T02:37:53;94752.34;;;11.40;100.00
6680;BME280;3376;42.664;23.346;2023-05-19T02:40:20;94756.13;;;11.38;100.00
6680;BME280;3376;42.664;23.346;2023-05-19T02:42:47;94753.84;;;11.35;100.00
6680;BME280;3376;42.664;23.346;2023-05-19T02:45:14;94751.16;;;11.28;100.00
6680;BME280;3376;42.664;23.346;2023-05-19T02:47:41;94753.56;;;11.30;100.00
6680;BME280;3376;42.664;23.346;2023-05-19T02:50:08;94750.41;;;11.20;100.00
6680;BME280;3376;42.664;23.346;2023-05-19T02:52:36;94742.50;;;11.13;100.00
6680;BME280;3376;42.664;23.346;2023-05-19T02:55:04;94753.69;;;11.14;100.00
6680;BME280;3376;42.664;23.346;2023-05-19T02:57:33;94744.53;;;11.03;100.00
6680;BME280;3376;42.664;23.346;2023-05-19T03:00:00;94747.25;;;11.10;100.00
6680;BME280;3376;42.664;23.346;2023-05-19T03:02:27;94658.59;;;10.46;100.00
6680;BME280;3376;42.664;23.346;2023-05-19T03:04:53;94751.09;;;11.14;100.00
6680;BME280;3376;42.664;23.346;2023-05-19T03:07:20;94580.50;;;10.04;100.00
6680;BME280;3376;42.664;23.346;2023-05-19T03:09:51;94764.34;;;11.19;100.00
6680;BME280;3376;42.664;23.346;2023-05-19T03:12:17;94763.53;;;11.18;100.00
6680;BME280;3376;42.664;23.346;2023-05-19T03:14:45;94764.94;;;11.29;100.00
6680;BME280;3376;42.664;23.346;2023-05-19T03:17:12;94772.06;;;11.27;100.00
6680;BME280;3376;42.664;23.346;2023-05-19T03:19:38;94746.88;;;11.13;100.00
6680;BME280;3376;42.664;23.346;2023-05-19T03:22:05;94778.25;;;11.26;100.00
6680;BME280;3376;42.664;23.346;2023-05-19T03:24:32;94769.47;;;11.27;100.00
6680;BME280;3376;42.664;23.346;2023-05-19T03:27:00;94761.03;;;11.33;100.00
6680;BME280;3376;42.664;23.346;2023-05-19T03:29:29;94773.63;;;11.36;100.00
6680;BME280;3376;42.664;23.346;2023-05-19T03:31:56;94773.63;;;11.36;100.00
6680;BME280;3376;42.664;23.346;2023-05-19T03:34:24;94770.84;;;11.37;100.00
6680;BME280;3376;42.664;23.346;2023-05-19T03:36:50;94767.56;;;11.43;100.00
6680;BME280;3376;42.664;23.346;2023-05-19T03:39:17;94765.78;;;11.44;100.00
6680;BME280;3376;42.664;23.346;2023-05-19T03:41:44;94775.97;;;11.45;100.00
6680;BME280;3376;42.664;23.346;2023-05-19T03:44:12;94771.31;;;11.41;100.00
6680;BME280;3376;42.664;23.346;2023-05-19T03:46:38;94763.63;;;11.47;100.00
6680;BME280;3376;42.664;23.346;2023-05-19T03:49:05;94779.13;;;11.55;100.00
6680;BME280;3376;42.664;23.346;2023-05-19T03:51:32;94777.25;;;11.72;100.00
6680;BME280;3376;42.664;23.346;2023-05-19T03:53:59;94773.03;;;11.71;100.00
6680;BME280;3376;42.664;23.346;2023-05-19T03:56:26;94777.59;;;11.69;100.00
6680;BME280;3376;42.664;23.346;2023-05-19T03:58:52;94740.47;;;11.46;100.00
6680;BME280;3376;42.664;23.346;2023-05-19T04:01:21;94762.25;;;11.59;100.00
6680;BME280;3376;42.664;23.346;2023-05-19T04:03:48;94779.06;;;11.86;100.00
6680;BME280;3376;42.664;23.346;2023-05-19T04:06:15;94776.22;;;11.96;100.00
6680;BME280;3376;42.664;23.346;2023-05-19T04:08:41;94784.31;;;12.15;100.00
6680;BME280;3376;42.664;23.346;2023-05-19T04:11:08;94779.97;;;12.22;100.00
6680;BME280;3376;42.664;23.346;2023-05-19T04:13:35;94771.31;;;12.30;100.00
6680;BME280;3376;42.664;23.346;2023-05-19T04:16:02;94783.47;;;12.44;100.00
6680;BME280;3376;42.664;23.346;2023-05-19T04:18:30;94784.09;;;12.60;100.00
6680;BME280;3376;42.664;23.346;2023-05-19T04:20:57;94780.16;;;12.64;100.00
6680;BME280;3376;42.664;23.346;2023-05-19T04:23:23;94792.91;;;12.80;100.00
6680;BME280;3376;42.664;23.346;2023-05-19T04:25:50;94801.25;;;12.90;100.00
6680;BME280;3376;42.664;23.346;2023-05-19T04:28:18;94796.41;;;12.87;100.00
6680;BME280;3376;42.664;23.346;2023-05-19T04:30:45;94793.81;;;12.87;100.00
6680;BME280;3376;42.664;23.346;2023-05-19T04:33:12;94784.66;;;12.91;100.00
6680;BME280;3376;42.664;23.346;2023-05-19T04:35:40;94798.66;;;13.05;100.00
6680;BME280;3376;42.664;23.346;2023-05-19T04:38:08;94806.00;;;13.16;100.00
6680;BME280;3376;42.664;23.346;2023-05-19T04:40:36;94646.16;;;12.26;100.00
6680;BME280;3376;42.664;23.346;2023-05-19T04:43:04;94821.59;;;13.37;100.00
6680;BME280;3376;42.664;23.346;2023-05-19T04:45:31;94799.63;;;13.40;100.00
6680;BME280;3376;42.664;23.346;2023-05-19T04:47:58;94806.66;;;13.46;100.00
6680;BME280;3376;42.664;23.346;2023-05-19T04:50:26;94792.19;;;13.37;100.00
6680;BME280;3376;42.664;23.346;2023-05-19T04:52:55;94800.59;;;13.60;100.00
6680;BME280;3376;42.664;23.346;2023-05-19T04:55:23;94804.06;;;13.67;100.00
6680;BME280;3376;42.664;23.346;2023-05-19T04:57:50;94792.41;;;13.63;100.00
6680;BME280;3376;42.664;23.346;2023-05-19T05:00:17;94811.75;;;13.75;100.00
6680;BME280;3376;42.664;23.346;2023-05-19T05:02:44;94817.31;;;13.93;100.00
6680;BME280;3376;42.664;23.346;2023-05-19T05:05:11;94811.44;;;14.12;100.00
6680;BME280;3376;42.664;23.346;2023-05-19T05:07:38;94813.72;;;14.22;100.00
6680;BME280;3376;42.664;23.346;2023-05-19T05:10:08;94774.13;;;14.05;100.00
6680;BME280;3376;42.664;23.346;2023-05-19T05:12:35;94810.72;;;14.25;100.00
6680;BME280;3376;42.664;23.346;2023-05-19T05:15:03;94808.56;;;14.28;100.00
6680;BME280;3376;42.664;23.346;2023-05-19T05:17:31;94811.38;;;14.27;100.00
6680;BME280;3376;42.664;23.346;2023-05-19T05:20:00;94805.34;;;14.26;100.00
6680;BME280;3376;42.664;23.346;2023-05-19T05:22:28;94810.47;;;14.41;100.00
6680;BME280;3376;42.664;23.346;2023-05-19T05:24:55;94810.72;;;14.52;100.00
6680;BME280;3376;42.664;23.346;2023-05-19T05:27:23;94797.91;;;14.57;100.00
6680;BME280;3376;42.664;23.346;2023-05-19T05:29:50;94815.25;;;14.71;100.00
6680;BME280;3376;42.664;23.346;2023-05-19T05:32:17;94814.44;;;14.71;100.00
6680;BME280;3376;42.664;23.346;2023-05-19T05:34:43;94813.88;;;14.82;100.00
6680;BME280;3376;42.664;23.346;2023-05-19T05:37:10;94824.97;;;14.90;100.00
6680;BME280;3376;42.664;23.346;2023-05-19T05:39:37;94816.94;;;14.92;100.00
6680;BME280;3376;42.664;23.346;2023-05-19T05:42:04;94825.97;;;14.89;100.00
6680;BME280;3376;42.664;23.346;2023-05-19T05:44:34;94789.22;;;14.84;100.00
6680;BME280;3376;42.664;23.346;2023-05-19T05:47:02;94813.00;;;15.09;100.00
6680;BME280;3376;42.664;23.346;2023-05-19T05:49:29;94809.78;;;15.13;100.00
6680;BME280;3376;42.664;23.346;2023-05-19T05:51:56;94821.09;;;15.27;100.00
6680;BME280;3376;42.664;23.346;2023-05-19T05:54:23;94827.19;;;15.41;100.00
6680;BME280;3376;42.664;23.346;2023-05-19T05:56:51;94831.66;;;15.60;100.00
6680;BME280;3376;42.664;23.346;2023-05-19T05:59:18;94805.50;;;15.53;100.00
6680;BME280;3376;42.664;23.346;2023-05-19T06:01:46;94678.06;;;14.83;100.00
6680;BME280;3376;42.664;23.346;2023-05-19T06:04:12;94845.34;;;15.88;100.00
6680;BME280;3376;42.664;23.346;2023-05-19T06:06:39;94847.34;;;15.92;100.00
6680;BME280;3376;42.664;23.346;2023-05-19T06:09:06;94853.78;;;15.96;100.00
6680;BME280;3376;42.664;23.346;2023-05-19T06:11:33;94843.72;;;16.13;100.00
6680;BME280;3376;42.664;23.346;2023-05-19T06:13:59;94841.13;;;16.19;100.00
6680;BME280;3376;42.664;23.346;2023-05-19T06:16:26;94856.00;;;16.32;100.00
6680;BME280;3376;42.664;23.346;2023-05-19T06:18:54;94842.53;;;16.35;100.00
6680;BME280;3376;42.664;23.346;2023-05-19T06:21:23;94852.19;;;16.54;100.00
6680;BME280;3376;42.664;23.346;2023-05-19T06:23:49;94855.78;;;16.73;100.00
6680;BME280;3376;42.664;23.346;2023-05-19T06:26:16;94848.09;;;16.84;100.00
6680;BME280;3376;42.664;23.346;2023-05-19T06:28:43;94835.63;;;16.86;100.00
6680;BME280;3376;42.664;23.346;2023-05-19T06:31:10;94848.59;;;17.12;100.00
6680;BME280;3376;42.664;23.346;2023-05-19T06:33:36;94853.03;;;17.18;100.00
6680;BME280;3376;42.664;23.346;2023-05-19T06:36:05;94856.84;;;17.22;100.00
6680;BME280;3376;42.664;23.346;2023-05-19T06:38:32;94849.09;;;17.40;100.00
6680;BME280;3376;42.664;23.346;2023-05-19T06:40:59;94810.56;;;17.10;100.00
6680;BME280;3376;42.664;23.346;2023-05-19T06:43:26;94857.75;;;17.47;100.00
6680;BME280;3376;42.664;23.346;2023-05-19T06:45:53;94853.94;;;17.50;99.17
6680;BME280;3376;42.664;23.346;2023-05-19T06:48:19;94862.28;;;17.72;96.73
6680;BME280;3376;42.664;23.346;2023-05-19T06:50:46;94861.50;;;17.96;95.06
6680;BME280;3376;42.664;23.346;2023-05-19T06:53:15;94864.19;;;17.89;94.60
6680;BME280;3376;42.664;23.346;2023-05-19T06:55:42;94854.19;;;18.04;95.40
6680;BME280;3376;42.664;23.346;2023-05-19T06:58:09;94861.06;;;18.30;94.10
6680;BME280;3376;42.664;23.346;2023-05-19T07:00:36;94867.25;;;18.66;92.87
6680;BME280;3376;42.664;23.346;2023-05-19T07:03:02;94871.84;;;18.89;91.98
6680;BME280;3376;42.664;23.346;2023-05-19T07:05:29;94877.69;;;19.09;89.42
6680;BME280;3376;42.664;23.346;2023-05-19T07:07:56;94864.28;;;19.17;89.44
6680;BME280;3376;42.664;23.346;2023-05-19T07:10:24;94860.38;;;19.20;88.06
6680;BME280;3376;42.664;23.346;2023-05-19T07:12:51;94886.47;;;19.57;83.80
6680;BME280;3376;42.664;23.346;2023-05-19T07:15:20;94881.63;;;19.54;83.08
6680;BME280;3376;42.664;23.346;2023-05-19T07:17:49;94884.59;;;19.76;81.67
6680;BME280;3376;42.664;23.346;2023-05-19T07:20:15;94888.00;;;20.06;80.62
6680;BME280;3376;42.664;23.346;2023-05-19T07:22:42;94895.44;;;20.09;78.42
6680;BME280;3376;42.664;23.346;2023-05-19T07:25:09;94893.03;;;20.08;79.69
6680;BME280;3376;42.664;23.346;2023-05-19T07:27:37;94878.19;;;20.13;79.21
6680;BME280;3376;42.664;23.346;2023-05-19T07:30:05;94883.66;;;20.00;81.00
6680;BME280;3376;42.664;23.346;2023-05-19T07:32:32;94884.19;;;19.90;80.55
6680;BME280;3376;42.664;23.346;2023-05-19T07:34:58;94881.78;;;19.89;81.39
6680;BME280;3376;42.664;23.346;2023-05-19T07:37:25;94863.00;;;19.85;84.50
6680;BME280;3376;42.664;23.346;2023-05-19T07:39:52;94883.59;;;19.88;80.32
6680;BME280;3376;42.664;23.346;2023-05-19T07:42:19;94887.44;;;20.04;80.78
6680;BME280;3376;42.664;23.346;2023-05-19T07:44:47;94876.44;;;20.37;81.13
6680;BME280;3376;42.664;23.346;2023-05-19T07:47:14;94879.81;;;20.67;78.33
6680;BME280;3376;42.664;23.346;2023-05-19T07:49:40;94871.09;;;20.78;74.83
6680;BME280;3376;42.664;23.346;2023-05-19T07:52:07;94876.47;;;20.83;76.16
6680;BME280;3376;42.664;23.346;2023-05-19T07:54:34;94861.72;;;20.70;87.83
6680;BME280;3376;42.664;23.346;2023-05-19T07:57:01;94873.59;;;20.73;78.20
6680;BME280;3376;42.664;23.346;2023-05-19T07:59:28;94873.81;;;20.48;77.99
6680;BME280;3376;42.664;23.346;2023-05-19T08:01:56;94883.78;;;20.46;77.07
6680;BME280;3376;42.664;23.346;2023-05-19T08:04:22;94874.19;;;20.75;75.35
6680;BME280;3376;42.664;23.346;2023-05-19T08:06:49;94874.88;;;21.05;74.23
6680;BME280;3376;42.664;23.346;2023-05-19T08:09:17;94856.75;;;20.97;76.14
6680;BME280;3376;42.664;23.346;2023-05-19T08:11:44;94871.56;;;20.98;75.50
6680;BME280;3376;42.664;23.346;2023-05-19T08:14:11;94879.91;;;21.18;75.74
6680;BME280;3376;42.664;23.346;2023-05-19T08:16:38;94878.50;;;21.39;72.86
6680;BME280;3376;42.664;23.346;2023-05-19T08:19:08;94871.19;;;21.69;70.47
6680;BME280;3376;42.664;23.346;2023-05-19T08:21:35;94874.63;;;21.69;69.39
6680;BME280;3376;42.664;23.346;2023-05-19T08:24:02;94873.88;;;21.57;71.56
6680;BME280;3376;42.664;23.346;2023-05-19T08:26:29;94874.38;;;21.71;70.04
6680;BME280;3376;42.664;23.346;2023-05-19T08:28:56;94868.06;;;21.72;69.50
6680;BME280;3376;42.664;23.346;2023-05-19T08:31:22;94857.53;;;21.83;68.96
6680;BME280;3376;42.664;23.346;2023-05-19T08:33:49;94863.56;;;22.12;69.81
6680;BME280;3376;42.664;23.346;2023-05-19T08:36:17;94859.91;;;22.30;68.43
6680;BME280;3376;42.664;23.346;2023-05-19T08:38:46;94836.38;;;22.11;67.53
6680;BME280;3376;42.664;23.346;2023-05-19T08:41:13;94862.88;;;22.50;67.70
6680;BME280;3376;42.664;23.346;2023-05-19T08:43:40;94860.97;;;22.78;65.90
6680;BME280;3376;42.664;23.346;2023-05-19T08:46:10;94865.75;;;22.98;64.99
6680;BME280;3376;42.664;23.346;2023-05-19T08:48:41;94869.84;;;23.27;63.44
6680;BME280;3376;42.664;23.346;2023-05-19T08:51:16;94849.84;;;23.31;63.25
6680;BME280;3376;42.664;23.346;2023-05-19T08:53:47;94864.03;;;23.47;62.15
6680;BME280;3376;42.664;23.346;2023-05-19T08:56:20;94869.03;;;23.43;62.32
6680;BME280;3376;42.664;23.346;2023-05-19T08:58:48;94867.78;;;23.29;62.51
6680;BME280;3376;42.664;23.346;2023-05-19T09:01:16;94863.84;;;23.53;61.95
6680;BME280;3376;42.664;23.346;2023-05-19T09:03:44;94851.97;;;23.77;59.93
6680;BME280;3376;42.664;23.346;2023-05-19T09:06:11;94860.00;;;23.87;59.77
6680;BME280;3376;42.664;23.346;2023-05-19T09:08:38;94717.09;;;23.12;59.21
6680;BME280;3376;42.664;23.346;2023-05-19T09:11:07;94855.53;;;24.14;58.25
6680;BME280;3376;42.664;23.346;2023-05-19T09:13:34;94850.88;;;24.26;58.60
6680;BME280;3376;42.664;23.346;2023-05-19T09:16:02;94841.66;;;24.02;59.78
6680;BME280;3376;42.664;23.346;2023-05-19T09:18:29;94833.25;;;23.84;58.74
6680;BME280;3376;42.664;23.346;2023-05-19T09:20:57;94838.72;;;23.77;60.83
6680;BME280;3376;42.664;23.346;2023-05-19T09:23:26;94846.38;;;23.52;61.95
6680;BME280;3376;42.664;23.346;2023-05-19T09:25:54;94842.06;;;23.68;61.88
6680;BME280;3376;42.664;23.346;2023-05-19T09:28:28;94835.84;;;23.57;62.42
6680;BME280;3376;42.664;23.346;2023-05-19T09:30:59;94832.13;;;23.53;63.25
6680;BME280;3376;42.664;23.346;2023-05-19T09:33:27;94823.53;;;23.68;61.61
6680;BME280;3376;42.664;23.346;2023-05-19T09:35:54;94830.84;;;23.82;60.42
6680;BME280;3376;42.664;23.346;2023-05-19T09:38:23;94832.97;;;23.85;58.95
6680;BME280;3376;42.664;23.346;2023-05-19T09:40:49;94834.38;;;23.66;57.84
6680;BME280;3376;42.664;23.346;2023-05-19T09:43:17;94849.03;;;24.00;55.57
6680;BME280;3376;42.664;23.346;2023-05-19T09:45:46;94838.59;;;23.67;56.27
6680;BME280;3376;42.664;23.346;2023-05-19T09:48:13;94838.50;;;23.36;58.99
6680;BME280;3376;42.664;23.346;2023-05-19T09:50:41;94827.72;;;23.20;58.59
6680;BME280;3376;42.664;23.346;2023-05-19T09:53:11;94838.56;;;23.41;58.64
6680;BME280;3376;42.664;23.346;2023-05-19T09:55:39;94833.50;;;23.61;59.29
6680;BME280;3376;42.664;23.346;2023-05-19T09:58:07;94833.44;;;23.56;60.23
6680;BME280;3376;42.664;23.346;2023-05-19T10:00:34;94821.84;;;23.83;57.82
6680;BME280;3376;42.664;23.346;2023-05-19T10:03:03;94827.00;;;24.21;56.98
6680;BME280;3376;42.664;23.346;2023-05-19T10:05:31;94823.97;;;24.39;54.26
6680;BME280;3376;42.664;23.346;2023-05-19T10:07:58;94820.44;;;24.29;52.23
6680;BME280;3376;42.664;23.346;2023-05-19T10:10:27;94818.50;;;24.51;51.75
6680;BME280;3376;42.664;23.346;2023-05-19T10:12:55;94831.72;;;24.83;51.50
6680;BME280;3376;42.664;23.346;2023-05-19T10:15:25;94809.59;;;25.04;50.96
6680;BME280;3376;42.664;23.346;2023-05-19T10:17:52;94799.34;;;25.22;49.60
6680;BME280;3376;42.664;23.346;2023-05-19T10:20:20;94823.31;;;25.42;50.00
6680;BME280;3376;42.664;23.346;2023-05-19T10:22:47;94790.09;;;25.30;47.96
6680;BME280;3376;42.664;23.346;2023-05-19T10:25:14;94811.97;;;25.57;47.69
6680;BME280;3376;42.664;23.346;2023-05-19T10:27:52;94817.31;;;25.77;46.21
6680;BME280;3376;42.664;23.346;2023-05-19T10:30:25;94800.59;;;25.77;45.81
6680;BME280;3376;42.664;23.346;2023-05-19T10:32:52;94797.16;;;25.71;45.81
6680;BME280;3376;42.664;23.346;2023-05-19T10:38:22;94802.97;;;25.73;49.12
6680;BME280;3376;42.664;23.346;2023-05-19T10:40:56;94794.97;;;25.58;47.93
6680;BME280;3376;42.664;23.346;2023-05-19T10:43:38;94785.16;;;25.59;48.50
6680;BME280;3376;42.664;23.346;2023-05-19T10:46:09;94789.53;;;25.23;47.85
6680;BME280;3376;42.664;23.346;2023-05-19T10:48:36;94678.50;;;24.33;48.63
6680;BME280;3376;42.664;23.346;2023-05-19T10:51:05;94802.47;;;24.68;45.56
6680;BME280;3376;42.664;23.346;2023-05-19T10:53:39;94785.47;;;24.64;46.20
6680;BME280;3376;42.664;23.346;2023-05-19T10:56:11;94792.25;;;24.50;44.94
6680;BME280;3376;42.664;23.346;2023-05-19T10:58:38;94785.53;;;24.74;44.51
6680;BME280;3376;42.664;23.346;2023-05-19T11:01:09;94780.56;;;24.82;45.69
6680;BME280;3376;42.664;23.346;2023-05-19T11:03:46;94779.06;;;25.01;47.75
6680;BME280;3376;42.664;23.346;2023-05-19T11:06:25;94787.31;;;25.05;46.78
6680;BME280;3376;42.664;23.346;2023-05-19T11:08:54;94776.72;;;25.05;46.40
6680;BME280;3376;42.664;23.346;2023-05-19T11:11:21;94777.91;;;24.82;47.57
6680;BME280;3376;42.664;23.346;2023-05-19T11:13:50;94767.00;;;24.74;46.68
6680;BME280;3376;42.664;23.346;2023-05-19T11:16:18;94772.44;;;24.94;46.56
6680;BME280;3376;42.664;23.346;2023-05-19T11:18:49;94769.91;;;25.29;42.77
6680;BME280;3376;42.664;23.346;2023-05-19T11:21:18;94772.53;;;25.24;43.88
6680;BME280;3376;42.664;23.346;2023-05-19T11:23:47;94784.50;;;25.26;43.90
6680;BME280;3376;42.664;23.346;2023-05-19T11:26:13;94775.16;;;25.14;44.34
6680;BME280;3376;42.664;23.346;2023-05-19T11:28:40;94764.97;;;24.91;46.48
6680;BME280;3376;42.664;23.346;2023-05-19T11:31:08;94779.75;;;24.77;47.21
6680;BME280;3376;42.664;23.346;2023-05-19T11:33:36;94770.44;;;24.37;45.18
6680;BME280;3376;42.664;23.346;2023-05-19T11:36:04;94783.16;;;24.04;46.45
6680;BME280;3376;42.664;23.346;2023-05-19T11:38:32;94772.41;;;23.89;49.17
6680;BME280;3376;42.664;23.346;2023-05-19T11:41:02;94773.50;;;23.66;49.54
6680;BME280;3376;42.664;23.346;2023-05-19T11:43:29;94790.78;;;23.47;50.45
6680;BME280;3376;42.664;23.346;2023-05-19T11:45:56;94801.59;;;23.24;53.50
6680;BME280;3376;42.664;23.346;2023-05-19T11:48:23;94795.50;;;22.64;59.40
6680;BME280;3376;42.664;23.346;2023-05-19T11:50:50;94814.34;;;21.89;53.91
6680;BME280;3376;42.664;23.346;2023-05-19T11:53:17;94817.72;;;21.45;65.57
6680;BME280;3376;42.664;23.346;2023-05-19T11:55:45;94822.78;;;20.61;72.87
6680;BME280;3376;42.664;23.346;2023-05-19T11:58:14;94801.09;;;20.13;78.88
6680;BME280;3376;42.664;23.346;2023-05-19T12:00:42;94812.38;;;19.90;75.13
6680;BME280;3376;42.664;23.346;2023-05-19T12:03:10;94844.75;;;19.61;81.57
6680;BME280;3376;42.664;23.346;2023-05-19T12:05:42;94854.97;;;19.51;77.04
6680;BME280;3376;42.664;23.346;2023-05-19T12:08:09;94844.25;;;18.62;87.35
6680;BME280;3376;42.664;23.346;2023-05-19T12:10:37;94831.31;;;17.87;93.38
6680;BME280;3376;42.664;23.346;2023-05-19T12:13:05;94846.19;;;17.11;99.36
6680;BME280;3376;42.664;23.346;2023-05-19T12:15:34;94862.06;;;16.52;100.00
6680;BME280;3376;42.664;23.346;2023-05-19T12:18:02;94851.19;;;16.22;100.00
6680;BME280;3376;42.664;23.346;2023-05-19T12:20:29;94852.56;;;15.92;100.00
6680;BME280;3376;42.664;23.346;2023-05-19T12:22:59;94876.91;;;15.99;100.00
6680;BME280;3376;42.664;23.346;2023-05-19T12:25:27;94857.78;;;15.86;100.00
6680;BME280;3376;42.664;23.346;2023-05-19T12:27:56;94878.69;;;15.92;100.00
6680;BME280;3376;42.664;23.346;2023-05-19T12:30:27;94848.56;;;15.90;100.00
6680;BME280;3376;42.664;23.346;2023-05-19T12:32:55;94871.06;;;15.91;100.00
6680;BME280;3376;42.664;23.346;2023-05-19T12:35:25;94856.59;;;16.01;100.00
6680;BME280;3376;42.664;23.346;2023-05-19T12:37:53;94850.78;;;16.06;100.00
6680;BME280;3376;42.664;23.346;2023-05-19T12:40:20;94840.13;;;16.14;100.00
6680;BME280;3376;42.664;23.346;2023-05-19T12:42:47;94847.97;;;16.40;100.00
6680;BME280;3376;42.664;23.346;2023-05-19T12:45:19;94835.66;;;16.67;100.00
6680;BME280;3376;42.664;23.346;2023-05-19T12:47:49;94829.97;;;16.89;91.94
6680;BME280;3376;42.664;23.346;2023-05-19T12:50:18;94827.47;;;17.07;90.98
6680;BME280;3376;42.664;23.346;2023-05-19T12:52:52;94825.59;;;17.27;91.35
6680;BME280;3376;42.664;23.346;2023-05-19T12:55:20;94809.63;;;17.35;83.39
6680;BME280;3376;42.664;23.346;2023-05-19T12:57:48;94810.34;;;17.55;87.08
6680;BME280;3376;42.664;23.346;2023-05-19T13:00:18;94783.94;;;17.57;84.03
6680;BME280;3376;42.664;23.346;2023-05-19T13:02:56;94797.69;;;17.84;87.87
6680;BME280;3376;42.664;23.346;2023-05-19T13:05:25;94808.13;;;17.90;84.74
6680;BME280;3376;42.664;23.346;2023-05-19T13:07:54;94801.53;;;18.06;85.65
6680;BME280;3376;42.664;23.346;2023-05-19T13:10:21;94789.94;;;18.20;85.43
6680;BME280;3376;42.664;23.346;2023-05-19T13:12:48;94787.03;;;18.28;83.06
6680;BME280;3376;42.664;23.346;2023-05-19T13:15:15;94782.09;;;18.38;82.72
6680;BME280;3376;42.664;23.346;2023-05-19T13:17:41;94781.41;;;18.67;78.65
6680;BME280;3376;42.664;23.346;2023-05-19T13:20:11;94704.28;;;18.50;74.49